createdAt,value
2018-12-23T00:00:17.682Z,7.60
2018-12-23T00:02:45.951Z,7.60
2018-12-23T00:05:14.179Z,7.50
2018-12-23T00:07:42.511Z,7.40
2018-12-23T00:10:10.795Z,7.40
2018-12-23T00:12:39.021Z,7.30
2018-12-23T00:15:08.270Z,7.30
2018-12-23T00:17:36.386Z,7.30
2018-12-23T00:20:07.191Z,7.30
2018-12-23T00:22:35.321Z,7.20
2018-12-23T00:25:03.604Z,7.20
2018-12-23T00:27:31.786Z,7.20
2018-12-23T00:29:59.907Z,7.10
2018-12-23T00:32:28.161Z,7.00
2018-12-23T00:34:56.294Z,7.10
2018-12-23T00:37:24.492Z,7.00
2018-12-23T00:39:52.656Z,7.00
2018-12-23T00:42:20.917Z,7.00
2018-12-23T00:44:49.246Z,7.00
2018-12-23T00:47:17.578Z,7.00
2018-12-23T00:49:45.825Z,7.00
2018-12-23T00:52:14.034Z,7.00
2018-12-23T00:54:42.155Z,7.00
2018-12-23T00:57:10.324Z,7.00
2018-12-23T00:59:38.598Z,7.00
2018-12-23T01:02:06.808Z,7.00
2018-12-23T01:04:35.009Z,7.00
2018-12-23T01:07:03.192Z,7.00
2018-12-23T01:09:31.548Z,7.00
2018-12-23T01:12:00.080Z,7.10
2018-12-23T01:14:28.324Z,7.10
2018-12-23T01:16:56.521Z,7.10
2018-12-23T01:19:24.703Z,7.00
2018-12-23T01:21:52.915Z,7.00
2018-12-23T01:24:21.125Z,7.00
2018-12-23T01:26:49.376Z,7.00
2018-12-23T01:29:17.587Z,7.00
2018-12-23T01:31:45.741Z,7.00
2018-12-23T01:34:13.848Z,7.10
2018-12-23T01:36:42.073Z,7.00
2018-12-23T01:39:10.238Z,7.00
2018-12-23T01:41:38.372Z,7.00
2018-12-23T01:44:06.520Z,7.00
2018-12-23T01:46:34.707Z,7.10
2018-12-23T01:49:02.846Z,7.10
2018-12-23T01:51:31.085Z,7.10
2018-12-23T01:53:59.197Z,7.10
2018-12-23T01:56:27.507Z,7.20
2018-12-23T01:58:55.860Z,7.20
2018-12-23T02:01:24.083Z,7.20
2018-12-23T02:03:52.212Z,7.30
2018-12-23T02:06:20.641Z,7.40
2018-12-23T02:08:48.863Z,7.50
2018-12-23T02:11:17.177Z,7.50
2018-12-23T02:13:45.303Z,7.50
2018-12-23T02:16:13.520Z,7.50
2018-12-23T02:18:41.676Z,7.40
2018-12-23T02:21:10.045Z,7.40
2018-12-23T02:23:38.336Z,7.40
2018-12-23T02:26:06.436Z,7.40
2018-12-23T02:28:34.580Z,7.40
2018-12-23T02:31:02.707Z,7.40
2018-12-23T02:33:30.856Z,7.40
2018-12-23T02:35:59.048Z,7.40
2018-12-23T02:38:27.288Z,7.50
2018-12-23T02:40:55.456Z,7.50
2018-12-23T02:43:23.654Z,7.50
2018-12-23T02:45:51.874Z,7.50
2018-12-23T02:48:20.161Z,7.50
2018-12-23T02:50:48.374Z,7.40
2018-12-23T02:53:16.495Z,7.30
2018-12-23T02:55:44.672Z,7.30
2018-12-23T02:58:12.783Z,7.40
2018-12-23T03:00:41.023Z,7.30
2018-12-23T03:03:09.320Z,7.20
2018-12-23T03:05:37.518Z,7.10
2018-12-23T03:08:05.953Z,7.10
2018-12-23T03:10:34.080Z,7.10
2018-12-23T03:13:02.207Z,7.10
2018-12-23T03:15:30.624Z,7.00
2018-12-23T03:17:58.849Z,7.00
2018-12-23T03:20:26.993Z,7.00
2018-12-23T03:22:55.106Z,6.90
2018-12-23T03:25:23.316Z,6.80
2018-12-23T03:27:51.454Z,6.80
2018-12-23T03:30:19.834Z,6.80
2018-12-23T03:32:48.125Z,6.70
2018-12-23T03:35:16.400Z,6.70
2018-12-23T03:37:44.552Z,6.70
2018-12-23T03:40:12.840Z,6.60
2018-12-23T03:42:40.987Z,6.60
2018-12-23T03:45:09.416Z,6.60
2018-12-23T03:47:37.635Z,6.60
2018-12-23T03:50:06.671Z,6.60
2018-12-23T03:52:34.801Z,6.70
2018-12-23T03:55:03.071Z,6.80
2018-12-23T03:57:31.300Z,6.80
2018-12-23T03:59:59.474Z,6.80
2018-12-23T04:02:27.719Z,6.90
2018-12-23T04:04:55.915Z,6.80
2018-12-23T04:07:24.196Z,6.80
2018-12-23T04:09:52.409Z,6.80
2018-12-23T04:12:20.613Z,6.80
2018-12-23T04:14:48.832Z,6.80
2018-12-23T04:17:17.132Z,6.90
2018-12-23T04:19:45.264Z,7.00
2018-12-23T04:22:13.404Z,7.00
2018-12-23T04:24:43.483Z,7.00
2018-12-23T04:27:11.616Z,7.00
2018-12-23T04:29:40.257Z,6.90
2018-12-23T04:32:08.382Z,6.90
2018-12-23T04:34:36.530Z,6.90
2018-12-23T04:37:04.843Z,7.00
2018-12-23T04:39:33.343Z,7.00
2018-12-23T04:42:01.493Z,7.00
2018-12-23T04:44:29.744Z,7.00
2018-12-23T04:46:57.966Z,7.00
2018-12-23T04:49:26.088Z,7.00
2018-12-23T04:51:54.334Z,6.90
2018-12-23T04:54:22.838Z,6.90
2018-12-23T04:56:51.032Z,6.90
2018-12-23T04:59:19.153Z,6.80
2018-12-23T05:01:47.347Z,6.80
2018-12-23T05:04:15.528Z,6.70
2018-12-23T05:06:43.808Z,6.70
2018-12-23T05:09:12.133Z,6.70
2018-12-23T05:11:40.451Z,6.70
2018-12-23T05:14:08.592Z,6.70
2018-12-23T05:16:36.734Z,6.70
2018-12-23T05:19:05.171Z,6.70
2018-12-23T05:21:33.461Z,6.60
2018-12-23T05:24:01.743Z,6.60
2018-12-23T05:26:30.111Z,6.60
2018-12-23T05:28:58.319Z,6.60
2018-12-23T05:31:26.533Z,6.60
2018-12-23T05:33:54.753Z,6.50
2018-12-23T05:36:23.275Z,6.50
2018-12-23T05:38:51.384Z,6.50
2018-12-23T05:41:19.521Z,6.50
2018-12-23T05:43:47.734Z,6.50
2018-12-23T05:46:16.173Z,6.50
2018-12-23T05:48:44.370Z,6.60
2018-12-23T05:51:12.493Z,6.50
2018-12-23T05:53:40.740Z,6.50
2018-12-23T05:56:08.885Z,6.50
2018-12-23T05:58:37.006Z,6.50
2018-12-23T06:01:05.124Z,6.50
2018-12-23T06:03:33.312Z,6.50
2018-12-23T06:06:01.409Z,6.50
2018-12-23T06:08:29.671Z,6.50
2018-12-23T06:10:57.781Z,6.60
2018-12-23T06:13:25.887Z,6.60
2018-12-23T06:15:54.258Z,6.50
2018-12-23T06:18:22.495Z,6.50
2018-12-23T06:20:50.894Z,6.50
2018-12-23T06:23:19.111Z,6.60
2018-12-23T06:25:47.479Z,6.60
2018-12-23T06:28:15.674Z,6.60
2018-12-23T06:30:43.855Z,6.60
2018-12-23T06:33:12.077Z,6.60
2018-12-23T06:35:40.211Z,6.50
2018-12-23T06:38:08.443Z,6.50
2018-12-23T06:40:36.550Z,6.50
2018-12-23T06:43:04.683Z,6.50
2018-12-23T06:45:32.817Z,6.50
2018-12-23T06:48:00.976Z,6.50
2018-12-23T06:50:29.179Z,6.50
2018-12-23T06:52:57.792Z,6.50
2018-12-23T06:55:26.318Z,6.50
2018-12-23T07:03:41.038Z,6.60
2018-12-23T07:06:09.169Z,6.60
2018-12-23T07:08:37.454Z,6.70
2018-12-23T07:11:05.555Z,6.80
2018-12-23T07:13:33.865Z,6.70
2018-12-23T07:16:21.386Z,6.70
2018-12-23T07:18:50.488Z,6.80
2018-12-23T07:21:18.702Z,6.80
2018-12-23T07:23:47.035Z,6.90
2018-12-23T07:26:15.333Z,7.00
2018-12-23T07:28:43.542Z,7.00
2018-12-23T07:31:11.756Z,7.00
2018-12-23T07:33:40.267Z,7.00
2018-12-23T07:36:08.655Z,7.10
2018-12-23T07:38:36.789Z,7.10
2018-12-23T07:41:04.951Z,7.10
2018-12-23T07:43:33.259Z,7.00
2018-12-23T07:46:01.491Z,7.00
2018-12-23T07:48:29.632Z,7.10
2018-12-23T07:50:58.147Z,7.10
2018-12-23T07:53:26.284Z,7.10
2018-12-23T07:55:54.449Z,7.10
2018-12-23T07:58:22.604Z,7.10
2018-12-23T08:00:50.720Z,7.20
2018-12-23T08:03:18.895Z,7.30
2018-12-23T08:05:47.034Z,7.40
2018-12-23T08:08:15.272Z,7.40
2018-12-23T08:10:43.388Z,7.40
2018-12-23T08:13:11.517Z,7.50
2018-12-23T08:15:39.755Z,7.60
2018-12-23T08:18:07.883Z,7.70
2018-12-23T08:20:36.119Z,7.80
2018-12-23T08:23:04.436Z,7.90
2018-12-23T08:25:35.782Z,7.90
2018-12-23T08:28:02.731Z,7.90
2018-12-23T08:30:30.848Z,8.00
2018-12-23T08:32:59.031Z,8.00
2018-12-23T08:35:27.506Z,8.00
2018-12-23T08:37:55.615Z,8.00
2018-12-23T08:40:23.819Z,7.90
2018-12-23T08:42:51.917Z,8.00
2018-12-23T08:45:20.123Z,8.10
2018-12-23T08:47:48.349Z,8.20
2018-12-23T08:50:16.764Z,8.30
2018-12-23T08:52:44.995Z,8.40
2018-12-23T08:55:13.145Z,8.40
2018-12-23T08:57:41.379Z,8.50
2018-12-23T09:00:09.719Z,8.60
2018-12-23T09:02:37.855Z,8.60
2018-12-23T09:05:06.048Z,8.70
2018-12-23T09:07:34.334Z,8.70
2018-12-23T09:10:02.604Z,8.70
2018-12-23T09:12:30.730Z,8.80
2018-12-23T09:14:58.931Z,8.80
2018-12-23T09:17:27.045Z,8.80
2018-12-23T09:19:55.275Z,8.80
2018-12-23T09:22:23.564Z,8.90
2018-12-23T09:24:54.219Z,8.90
2018-12-23T09:27:23.205Z,9.00
2018-12-23T09:29:51.391Z,8.90
2018-12-23T09:32:19.663Z,9.00
2018-12-23T09:34:47.835Z,9.00
2018-12-23T09:37:16.000Z,9.00
2018-12-23T09:39:44.212Z,8.90
2018-12-23T09:42:12.581Z,8.90
2018-12-23T09:44:41.044Z,9.00
2018-12-23T09:47:09.199Z,9.10
2018-12-23T09:49:37.622Z,9.10
2018-12-23T09:52:05.763Z,9.10
2018-12-23T09:54:34.022Z,9.10
2018-12-23T09:57:02.366Z,9.20
2018-12-23T09:59:30.706Z,9.20
2018-12-23T10:01:58.896Z,9.20
2018-12-23T10:04:27.225Z,9.30
2018-12-23T10:06:55.362Z,9.30
2018-12-23T10:09:24.360Z,9.30
2018-12-23T10:11:53.603Z,9.30
2018-12-23T10:14:21.824Z,9.30
2018-12-23T10:16:50.003Z,9.30
2018-12-23T10:19:18.264Z,9.30
2018-12-23T10:21:46.707Z,9.40
2018-12-23T10:24:16.930Z,9.30
2018-12-23T10:26:46.247Z,9.40
2018-12-23T10:29:16.482Z,9.40
2018-12-23T10:31:46.331Z,9.40
2018-12-23T10:34:17.696Z,9.40
2018-12-23T10:36:47.583Z,9.40
2018-12-23T10:39:17.212Z,9.40
2018-12-23T10:41:45.527Z,9.50
2018-12-23T10:44:17.010Z,9.40
2018-12-23T10:46:45.151Z,9.40
2018-12-23T10:49:16.330Z,9.40
2018-12-23T10:51:46.387Z,9.40
2018-12-23T10:54:14.771Z,9.30
2018-12-23T10:56:42.876Z,9.30
2018-12-23T10:59:11.006Z,9.30
2018-12-23T11:01:39.235Z,9.30
2018-12-23T11:04:08.223Z,9.20
2018-12-23T11:06:36.966Z,9.20
2018-12-23T11:09:06.252Z,9.30
2018-12-23T11:11:34.384Z,9.20
2018-12-23T11:14:02.743Z,9.30
2018-12-23T11:16:32.036Z,9.30
2018-12-23T11:19:00.889Z,9.40
2018-12-23T11:21:29.036Z,9.40
2018-12-23T11:23:57.547Z,9.40
2018-12-23T11:26:26.548Z,9.40
2018-12-23T11:28:55.341Z,9.50
2018-12-23T11:31:24.002Z,9.60
2018-12-23T11:33:52.159Z,9.60
2018-12-23T11:36:20.327Z,9.60
2018-12-23T11:38:48.692Z,9.60
2018-12-23T11:41:17.120Z,9.60
2018-12-23T11:43:45.958Z,9.70
2018-12-23T11:46:14.165Z,9.80
2018-12-23T11:48:42.312Z,9.90
2018-12-23T11:51:10.507Z,9.90
2018-12-23T11:53:38.679Z,9.90
2018-12-23T11:56:07.008Z,9.90
2018-12-23T11:58:35.237Z,9.90
2018-12-23T12:01:03.591Z,9.90
2018-12-23T12:03:32.035Z,9.80
2018-12-23T12:06:00.139Z,9.90
2018-12-23T12:08:28.492Z,9.90
2018-12-23T12:10:56.913Z,9.90
2018-12-23T12:13:25.211Z,10.00
2018-12-23T12:15:53.353Z,9.90
2018-12-23T12:18:21.547Z,9.90
2018-12-23T12:20:49.808Z,9.90
2018-12-23T12:23:18.022Z,9.90
2018-12-23T12:25:46.180Z,9.90
2018-12-23T12:28:14.464Z,9.90
2018-12-23T12:30:42.643Z,9.80
2018-12-23T12:33:10.785Z,9.80
2018-12-23T12:35:38.992Z,9.70
2018-12-23T12:38:07.268Z,9.70
2018-12-23T12:40:35.576Z,9.60
2018-12-23T12:43:03.963Z,9.60
2018-12-23T12:45:32.240Z,9.50
2018-12-23T12:48:00.509Z,9.60
2018-12-23T12:50:28.764Z,9.60
2018-12-23T12:52:57.015Z,9.60
2018-12-23T12:55:25.285Z,9.50
2018-12-23T12:57:53.468Z,9.50
2018-12-23T13:00:21.776Z,9.50
2018-12-23T13:02:49.894Z,9.40
2018-12-23T13:05:18.124Z,9.40
2018-12-23T13:07:46.657Z,9.40
2018-12-23T13:10:14.975Z,9.40
2018-12-23T13:12:43.383Z,9.30
2018-12-23T13:15:11.681Z,9.30
2018-12-23T13:17:39.876Z,9.30
2018-12-23T13:20:08.072Z,9.30
2018-12-23T13:22:36.238Z,9.30
2018-12-23T13:25:04.763Z,9.30
2018-12-23T13:27:32.895Z,9.30
2018-12-23T13:30:01.122Z,9.30
2018-12-23T13:32:29.632Z,9.20
2018-12-23T13:34:57.851Z,9.10
2018-12-23T13:37:26.244Z,9.10
2018-12-23T13:39:56.032Z,9.10
2018-12-23T13:42:35.214Z,9.10
2018-12-23T13:45:29.130Z,9.00
2018-12-23T13:48:24.405Z,9.00
2018-12-23T13:51:05.929Z,9.00
2018-12-23T13:53:45.280Z,9.00
2018-12-23T13:56:24.543Z,9.00
2018-12-23T13:59:03.271Z,8.90
2018-12-23T14:01:59.728Z,8.80
2018-12-23T14:04:53.587Z,8.80
2018-12-23T14:09:38.106Z,8.80
2018-12-23T14:12:06.275Z,8.70
2018-12-23T14:14:35.833Z,8.70
2018-12-23T14:17:04.087Z,8.70
2018-12-23T14:19:32.257Z,8.70
2018-12-23T14:22:00.408Z,8.60
2018-12-23T14:24:28.656Z,8.60
2018-12-23T14:26:56.864Z,8.60
2018-12-23T14:29:25.100Z,8.50
2018-12-23T14:31:53.360Z,8.50
2018-12-23T14:34:21.888Z,8.50
2018-12-23T14:36:50.228Z,8.50
2018-12-23T14:39:25.719Z,8.40
2018-12-23T14:41:48.642Z,8.40
2018-12-23T14:44:16.857Z,8.40
2018-12-23T14:46:44.963Z,8.40
2018-12-23T14:49:13.088Z,8.40
2018-12-23T14:51:41.187Z,8.30
2018-12-23T14:54:09.520Z,8.30
2018-12-23T14:56:37.706Z,8.30
2018-12-23T14:59:05.901Z,8.30
2018-12-23T15:01:34.340Z,8.30
2018-12-23T15:04:02.666Z,8.20
2018-12-23T15:06:30.908Z,8.20
2018-12-23T15:08:59.277Z,8.10
2018-12-23T15:11:27.558Z,8.20
2018-12-23T15:13:55.773Z,8.10
2018-12-23T15:16:24.194Z,8.10
2018-12-23T15:18:52.795Z,8.10
2018-12-23T15:21:21.021Z,8.00
2018-12-23T15:23:49.176Z,8.00
2018-12-23T15:26:17.345Z,8.00
2018-12-23T15:28:45.643Z,8.10
2018-12-23T15:31:13.881Z,8.00
2018-12-23T15:33:42.171Z,8.10
2018-12-23T15:36:11.440Z,8.00
2018-12-23T15:38:39.557Z,8.00
2018-12-23T15:41:08.065Z,7.90
2018-12-23T15:43:36.422Z,8.00
2018-12-23T15:46:04.548Z,8.00
2018-12-23T15:48:33.072Z,8.00
2018-12-23T15:51:01.291Z,8.00
2018-12-23T15:53:29.567Z,8.00
2018-12-23T15:56:48.592Z,8.00
2018-12-23T15:59:29.279Z,8.00
2018-12-23T16:02:10.024Z,8.10
2018-12-23T16:04:50.927Z,8.10
2018-12-23T16:07:31.804Z,8.00
2018-12-23T16:10:12.900Z,8.10
2018-12-23T16:12:53.713Z,8.10
2018-12-23T16:15:34.306Z,8.00
2018-12-23T16:18:15.226Z,8.00
2018-12-23T16:20:56.428Z,8.00
2018-12-23T16:23:37.396Z,8.00
2018-12-23T16:26:18.508Z,8.00
2018-12-23T16:28:59.259Z,8.10
2018-12-23T16:31:40.485Z,8.00
2018-12-23T16:34:21.508Z,8.00
2018-12-23T16:37:02.845Z,8.00
2018-12-23T16:39:43.673Z,8.00
2018-12-23T16:42:23.995Z,8.00
2018-12-23T16:45:04.811Z,8.00
2018-12-23T16:47:46.044Z,8.00
2018-12-23T16:50:27.328Z,8.10
2018-12-23T16:53:08.279Z,8.10
2018-12-23T16:55:48.901Z,8.10
2018-12-23T16:58:29.409Z,8.20
2018-12-23T17:01:10.276Z,8.20
2018-12-23T17:03:51.524Z,8.20
2018-12-23T17:06:32.085Z,8.10
2018-12-23T17:09:12.985Z,8.20
2018-12-23T17:11:53.734Z,8.20
2018-12-23T17:14:34.627Z,8.20
2018-12-23T17:17:15.443Z,8.20
2018-12-23T17:19:56.175Z,8.10
2018-12-23T17:22:37.089Z,8.20
2018-12-23T17:25:17.525Z,8.20
2018-12-23T17:27:58.417Z,8.20
2018-12-23T17:30:38.989Z,8.20
2018-12-23T17:33:19.794Z,8.20
2018-12-23T17:36:00.696Z,8.20
2018-12-23T17:38:41.647Z,8.20
2018-12-23T17:41:22.337Z,8.20
2018-12-23T17:44:03.168Z,8.30
2018-12-23T17:46:44.077Z,8.30
2018-12-23T17:49:25.002Z,8.30
2018-12-23T17:52:06.322Z,8.30
2018-12-23T17:54:47.263Z,8.30
2018-12-23T17:57:28.233Z,8.30
2018-12-23T18:00:09.418Z,8.30
2018-12-23T18:02:50.647Z,8.30
2018-12-23T18:05:31.338Z,8.40
2018-12-23T18:08:12.684Z,8.40
2018-12-23T18:10:53.588Z,8.40
2018-12-23T18:13:34.332Z,8.40
2018-12-23T18:16:15.008Z,8.40
2018-12-23T18:18:56.042Z,8.40
2018-12-23T18:21:36.589Z,8.40
2018-12-23T18:24:17.861Z,8.40
2018-12-23T18:26:58.322Z,8.40
2018-12-23T18:29:39.021Z,8.50
2018-12-23T18:32:20.170Z,8.50
2018-12-23T18:35:01.223Z,8.50
2018-12-23T18:37:41.545Z,8.50
2018-12-23T18:40:22.673Z,8.50
2018-12-23T18:43:03.259Z,8.60
2018-12-23T18:45:44.089Z,8.50
2018-12-23T18:48:25.552Z,8.50
2018-12-23T18:51:06.808Z,8.60
2018-12-23T18:53:47.553Z,8.60
2018-12-23T18:56:28.404Z,8.60
2018-12-23T18:59:09.218Z,8.60
2018-12-23T19:01:50.139Z,8.70
2018-12-23T19:04:32.598Z,8.70
2018-12-23T19:07:13.171Z,8.70
2018-12-23T19:09:53.978Z,8.70
2018-12-23T19:12:34.654Z,8.70
2018-12-23T19:15:15.503Z,8.70
2018-12-23T19:17:56.209Z,8.70
2018-12-23T19:20:37.085Z,8.70
2018-12-23T19:23:18.368Z,8.70
2018-12-23T19:25:59.339Z,8.80
2018-12-23T19:28:40.673Z,8.90
2018-12-23T19:31:21.585Z,8.80
2018-12-23T19:34:02.181Z,8.90
2018-12-23T19:36:43.130Z,8.90
2018-12-23T19:39:23.714Z,9.00
2018-12-23T19:42:04.454Z,8.90
2018-12-23T19:44:45.286Z,9.00
2018-12-23T19:47:25.997Z,9.00
2018-12-23T19:50:06.908Z,9.10
2018-12-23T19:52:48.223Z,9.10
2018-12-23T19:55:29.044Z,9.10
2018-12-23T19:58:12.997Z,9.10
2018-12-23T20:00:53.736Z,9.20
2018-12-23T20:03:34.577Z,9.20
2018-12-23T20:06:15.654Z,9.20
2018-12-23T20:08:56.563Z,9.20
2018-12-23T20:11:37.344Z,9.30
2018-12-23T20:14:18.176Z,9.30
2018-12-23T20:16:58.965Z,9.40
2018-12-23T20:19:39.601Z,9.40
2018-12-23T20:22:20.337Z,9.40
2018-12-23T20:25:01.245Z,9.40
2018-12-23T20:27:42.174Z,9.50
2018-12-23T20:30:38.068Z,9.50
2018-12-23T20:33:45.270Z,9.50
2018-12-23T20:36:48.712Z,9.60
2018-12-23T20:39:55.933Z,9.60
2018-12-23T20:43:03.144Z,9.70
2018-12-23T20:46:10.430Z,9.80
2018-12-23T20:49:17.621Z,9.80
2018-12-23T20:52:24.936Z,9.90
2018-12-23T20:55:32.434Z,10.00
2018-12-23T20:58:39.643Z,10.00
2018-12-23T21:01:46.901Z,10.10
2018-12-23T21:04:38.231Z,10.10
2018-12-23T21:07:45.446Z,10.10
2018-12-23T21:10:52.648Z,10.00
2018-12-23T21:13:59.881Z,10.00
2018-12-23T21:17:07.126Z,10.10
2018-12-23T21:20:03.260Z,10.20
2018-12-23T21:23:10.469Z,10.20
2018-12-23T21:26:17.920Z,10.30
2018-12-23T21:29:25.142Z,10.40
2018-12-23T21:32:20.031Z,10.40
2018-12-23T21:35:27.554Z,10.50
2018-12-23T21:38:34.744Z,10.50
2018-12-23T21:41:30.622Z,10.60
2018-12-23T21:44:37.826Z,10.60
2018-12-23T21:47:45.081Z,10.60
2018-12-23T21:50:52.351Z,10.60
2018-12-23T21:53:59.548Z,10.70
2018-12-23T21:57:06.857Z,10.70
2018-12-23T22:00:14.077Z,10.80
2018-12-23T22:03:21.312Z,10.80
2018-12-23T22:06:28.520Z,10.80
2018-12-23T22:09:35.740Z,10.80
2018-12-23T22:12:42.951Z,10.80
2018-12-23T22:18:38.644Z,10.80
2018-12-23T22:21:20.013Z,10.90
2018-12-23T22:24:01.934Z,10.80
2018-12-23T22:26:46.132Z,10.80
2018-12-23T22:29:27.077Z,10.80
2018-12-23T22:32:07.419Z,10.90
2018-12-23T22:34:48.264Z,11.00
2018-12-23T22:37:28.825Z,11.00
2018-12-23T22:40:09.320Z,11.00
2018-12-23T22:42:50.060Z,11.10
2018-12-23T22:45:30.828Z,11.10
2018-12-23T22:48:11.462Z,11.10
2018-12-23T22:50:52.105Z,11.10
2018-12-23T22:53:32.827Z,11.20
2018-12-23T22:56:13.245Z,11.20
2018-12-23T22:58:54.165Z,11.20
2018-12-23T23:01:35.388Z,11.20
2018-12-23T23:04:15.969Z,11.20
2018-12-23T23:06:56.771Z,11.30
2018-12-23T23:09:37.512Z,11.30
2018-12-23T23:12:18.872Z,11.30
2018-12-23T23:14:59.478Z,11.40
2018-12-23T23:17:40.206Z,11.40
2018-12-23T23:20:20.720Z,11.30
2018-12-23T23:23:01.655Z,11.30
2018-12-23T23:25:42.457Z,11.30
2018-12-23T23:28:23.105Z,11.30
2018-12-23T23:31:04.077Z,11.30
2018-12-23T23:33:46.496Z,11.30
2018-12-23T23:36:27.160Z,11.30
2018-12-23T23:39:07.617Z,11.30
2018-12-23T23:41:48.714Z,11.20
2018-12-23T23:44:29.542Z,11.30
2018-12-23T23:47:10.401Z,11.30
2018-12-23T23:49:51.768Z,11.30
2018-12-23T23:52:32.378Z,11.40
2018-12-23T23:55:13.430Z,11.50
2018-12-23T23:57:53.881Z,11.50
